Time;durP1;ratioP1;P1;durP2;ratioP2;P2;SDS_P1;SDS_P2;PMS_P1;PMS_P2;Temp;Humidity;BMP_temperature;BMP_pressure;BME280_temperature;BME280_humidity;BME280_pressure;Samples;Min_cycle;Max_cycle;Signal;HPM_P1;HPM_P2
2022/07/18 00:01:40;;;;;;;5.45;3.45;;;;;;;21.01;59.32;102074.38;4928719;28;119964;-82
2022/07/18 00:04:05;;;;;;;7.33;3.23;;;;;;;20.97;59.28;102063.44;4911648;28;120171;-83
2022/07/18 00:06:31;;;;;;;8.40;3.50;;;;;;;21.01;59.75;102066.00;4921549;28;120434;-83
2022/07/18 00:08:57;;;;;;;5.80;3.30;;;;;;;20.99;59.40;102066.50;4932161;28;120354;-82
2022/07/18 00:11:23;;;;;;;7.77;3.70;;;;;;;21.02;59.63;102068.31;4916327;28;122607;-82
2022/07/18 00:13:50;;;;;;;8.27;3.60;;;;;;;21.05;59.75;102063.75;4893444;28;120044;-83
2022/07/18 00:16:17;;;;;;;5.38;3.50;;;;;;;21.00;59.44;102061.69;4919998;28;119586;-83
2022/07/18 00:18:43;;;;;;;12.13;4.00;;;;;;;21.07;59.73;102076.00;4926969;28;121392;-82
2022/07/18 00:21:09;;;;;;;6.55;3.47;;;;;;;21.03;59.45;102075.41;4911890;28;119584;-82
2022/07/18 00:23:34;;;;;;;8.53;4.20;;;;;;;21.03;59.41;102071.84;4925688;28;121391;-83
2022/07/18 00:26:00;;;;;;;6.50;3.70;;;;;;;21.05;59.57;102078.47;4927029;28;120526;-83
2022/07/18 00:28:26;;;;;;;5.73;3.40;;;;;;;21.10;59.33;102066.63;4928301;28;119958;-83
2022/07/18 00:30:52;;;;;;;6.63;3.47;;;;;;;21.11;59.90;102070.19;4948008;28;122066;-82
2022/07/18 00:33:18;;;;;;;6.33;3.70;;;;;;;21.11;59.41;102068.16;4927702;28;119955;-82
2022/07/18 00:35:43;;;;;;;8.03;4.17;;;;;;;21.06;59.06;102063.31;4927280;28;120210;-82
2022/07/18 00:38:09;;;;;;;8.32;4.10;;;;;;;21.07;59.14;102061.28;4927552;28;123331;-82
2022/07/18 00:40:35;;;;;;;7.55;3.80;;;;;;;21.14;59.16;102060.84;4912809;28;120779;-82
2022/07/18 00:43:00;;;;;;;7.50;3.90;;;;;;;21.08;58.98;102057.22;4931888;28;120141;-82
2022/07/18 00:45:28;;;;;;;6.78;3.72;;;;;;;21.13;59.01;102057.28;4923687;28;120724;-82
2022/07/18 00:47:54;;;;;;;6.40;3.70;;;;;;;21.11;59.23;102047.88;4906506;28;120215;-82
2022/07/18 00:50:21;;;;;;;6.72;4.03;;;;;;;21.17;59.05;102059.09;4929636;28;121000;-82
2022/07/18 00:52:47;;;;;;;7.18;4.35;;;;;;;21.11;59.04;102045.09;4917791;28;122620;-82
2022/07/18 00:55:13;;;;;;;6.53;4.40;;;;;;;21.17;58.85;102056.28;4927585;28;122025;-82
2022/07/18 00:57:41;;;;;;;6.30;4.10;;;;;;;21.10;58.49;102049.91;4910672;28;120068;-82
2022/07/18 01:02:53;;;;;;;8.30;4.57;;;;;;;21.12;59.02;102049.41;4911179;28;120972;-82
2022/07/18 01:05:37;;;;;;;7.03;4.53;;;;;;;21.10;58.95;102046.34;4914692;28;120967;-82
2022/07/18 01:08:03;;;;;;;8.13;4.25;;;;;;;21.13;58.72;102059.31;4928712;28;119752;-82
2022/07/18 01:10:29;;;;;;;7.60;4.40;;;;;;;21.11;58.94;102056.25;4911768;28;120259;-82
2022/07/18 01:12:55;;;;;;;7.83;4.30;;;;;;;21.14;58.93;102055.25;4909032;28;122956;-82
2022/07/18 01:15:20;;;;;;;5.60;4.20;;;;;;;21.13;58.65;102059.31;4925963;28;119858;-82
2022/07/18 01:17:46;;;;;;;7.35;4.45;;;;;;;21.14;59.26;102077.56;4927629;28;121076;-82
2022/07/18 01:20:12;;;;;;;9.48;4.50;;;;;;;21.09;59.04;102055.97;4930373;28;120105;-82
2022/07/18 01:22:41;;;;;;;7.77;4.10;;;;;;;21.13;59.22;102067.66;4910013;28;122010;-82
2022/07/18 01:25:11;;;;;;;6.40;4.20;;;;;;;21.09;59.13;102064.34;4926542;28;120513;-82
2022/07/18 01:27:37;;;;;;;7.97;4.63;;;;;;;21.16;59.51;102069.47;4926584;28;121903;-81
2022/07/18 01:30:04;;;;;;;7.35;4.60;;;;;;;21.15;59.19;102067.94;4896923;28;122671;-82
2022/07/18 01:32:30;;;;;;;7.55;4.28;;;;;;;21.04;59.50;102056.66;4911852;28;122889;-81
2022/07/18 01:34:55;;;;;;;7.40;4.15;;;;;;;21.16;59.39;102069.47;4927101;28;119787;-82
2022/07/18 01:37:21;;;;;;;8.68;4.30;;;;;;;21.17;59.53;102059.84;4928910;28;121916;-82
2022/07/18 01:39:47;;;;;;;7.05;3.97;;;;;;;21.19;59.54;102054.53;4930613;28;120303;-82
2022/07/18 01:42:13;;;;;;;7.03;4.63;;;;;;;21.17;59.77;102045.13;4913003;28;122363;-82
2022/07/18 01:44:39;;;;;;;7.93;4.07;;;;;;;21.21;59.79;102051.25;4913950;28;124098;-82
2022/07/18 01:47:07;;;;;;;6.07;4.25;;;;;;;21.21;59.78;102049.22;4930051;28;120091;-82
2022/07/18 01:49:34;;;;;;;7.18;4.55;;;;;;;21.21;59.97;102046.44;4929637;28;119925;-82
2022/07/18 01:52:00;;;;;;;7.95;4.72;;;;;;;21.20;60.01;102044.91;4895343;28;124342;-82
2022/07/18 01:54:29;;;;;;;11.95;5.53;;;;;;;21.19;59.88;102046.16;4920955;28;119728;-82
2022/07/18 01:56:56;;;;;;;9.27;5.40;;;;;;;21.17;59.78;102045.91;4915797;28;119982;-82
2022/07/18 01:59:22;;;;;;;8.55;5.47;;;;;;;21.12;59.87;102038.25;4924417;28;120162;-82
2022/07/18 02:01:49;;;;;;;8.82;5.00;;;;;;;21.14;59.92;102044.09;4916052;28;119854;-82
2022/07/18 02:04:59;;;;;;;12.05;5.82;;;;;;;21.13;59.91;102039.78;4879317;28;122666;-81
2022/07/18 02:07:07;;;;;;;9.63;5.85;;;;;;;21.13;59.80;102039.78;4925645;28;119655;-82
2022/07/18 02:09:33;;;;;;;8.52;5.93;;;;;;;21.11;59.86;102040.28;4923588;28;122389;-82
2022/07/18 02:11:58;;;;;;;9.48;5.88;;;;;;;21.11;60.22;102045.09;4913330;28;121476;-82
2022/07/18 02:14:24;;;;;;;8.95;6.18;;;;;;;21.07;60.02;102027.78;4928954;28;119806;-82
2022/07/18 02:16:49;;;;;;;9.25;6.00;;;;;;;21.05;60.02;102019.88;4916552;28;120334;-82
2022/07/18 02:19:15;;;;;;;9.47;6.40;;;;;;;21.05;60.28;102031.06;4912947;28;122849;-82
2022/07/18 02:21:41;;;;;;;10.10;6.47;;;;;;;21.08;60.26;102026.53;4919326;28;120045;-82
2022/07/18 02:24:07;;;;;;;11.30;6.80;;;;;;;21.05;60.24;102014.31;4927704;28;120831;-82
2022/07/18 02:26:35;;;;;;;9.23;6.70;;;;;;;21.04;60.63;102023.19;4927795;28;121811;-82
2022/07/18 02:29:01;;;;;;;9.73;7.17;;;;;;;21.02;60.59;102014.53;4928911;28;119961;-82
2022/07/18 02:31:50;;;;;;;10.33;7.30;;;;;;;20.98;60.29;102011.19;4927377;28;120475;-82
2022/07/18 02:34:15;;;;;;;11.33;7.60;;;;;;;20.98;60.47;102014.75;4926029;28;120234;-82
2022/07/18 02:36:41;;;;;;;10.70;6.97;;;;;;;20.96;60.46;102005.34;4909683;28;122397;-82
2022/07/18 02:39:08;;;;;;;11.73;6.75;;;;;;;20.99;60.49;102009.94;4927553;28;120090;-83
2022/07/18 02:41:34;;;;;;;12.40;7.03;;;;;;;20.95;60.73;101995.44;4900623;28;120301;-81
2022/07/18 02:44:00;;;;;;;9.67;6.70;;;;;;;20.99;60.74;102004.34;4927645;28;120505;-81
2022/07/18 02:46:26;;;;;;;10.43;7.03;;;;;;;20.98;61.04;102009.19;4928481;28;120016;-82
2022/07/18 02:48:52;;;;;;;9.38;6.97;;;;;;;20.93;60.80;101990.38;4908896;28;122621;-82
2022/07/18 02:51:18;;;;;;;10.18;6.93;;;;;;;20.95;60.77;102003.81;4938029;28;123484;-82
2022/07/18 02:53:44;;;;;;;12.13;7.40;;;;;;;20.94;61.00;101994.69;4927902;28;119921;-82
2022/07/18 02:56:09;;;;;;;12.95;7.75;;;;;;;20.90;60.89;101980.19;4928100;28;119500;-81
2022/07/18 02:58:35;;;;;;;11.38;7.40;;;;;;;20.92;60.92;101990.84;4909735;28;123047;-82
2022/07/18 03:01:01;;;;;;;12.15;7.70;;;;;;;20.87;60.91;101978.38;4912099;28;120102;-82
2022/07/18 03:03:26;;;;;;;13.57;7.67;;;;;;;20.82;60.82;101985.44;4947951;28;120011;-82
2022/07/18 03:05:52;;;;;;;11.97;7.40;;;;;;;20.87;61.23;101986.00;4937042;28;120424;-82
2022/07/18 03:08:21;;;;;;;11.18;7.60;;;;;;;20.84;61.03;101984.94;4929691;28;119822;-82
2022/07/18 03:10:47;;;;;;;11.90;7.97;;;;;;;20.80;60.57;101982.34;4907659;28;122942;-82
2022/07/18 03:13:12;;;;;;;11.77;7.80;;;;;;;20.80;60.85;101979.56;4884323;28;1209813;-82
2022/07/18 03:15:39;;;;;;;12.23;7.73;;;;;;;20.77;60.91;101969.41;4911576;28;119898;-82
2022/07/18 03:18:05;;;;;;;12.40;7.83;;;;;;;20.69;60.88;101962.72;4910293;28;120671;-82
2022/07/18 03:20:31;;;;;;;11.57;7.60;;;;;;;20.76;60.84;101976.22;4913223;28;119958;-82
2022/07/18 03:22:57;;;;;;;10.98;7.50;;;;;;;20.72;60.95;101961.75;4912692;28;119806;-82
2022/07/18 03:25:23;;;;;;;12.88;7.35;;;;;;;20.71;60.92;101962.25;4948557;28;120698;-82
2022/07/18 03:27:51;;;;;;;10.23;7.10;;;;;;;20.71;60.57;101968.56;4930460;28;119993;-82
2022/07/18 03:30:17;;;;;;;11.97;7.03;;;;;;;20.63;60.63;101970.28;4911096;28;122951;-82
2022/07/18 03:32:43;;;;;;;13.07;7.00;;;;;;;20.71;60.56;101985.31;4912268;28;120091;-81
2022/07/18 03:35:08;;;;;;;10.37;6.63;;;;;;;20.66;60.58;101969.28;4923062;28;120699;-82
2022/07/18 03:37:34;;;;;;;10.10;6.63;;;;;;;20.67;60.60;101961.69;4911638;28;122982;-82
2022/07/18 03:39:59;;;;;;;10.63;6.82;;;;;;;20.63;60.81;101950.75;4911143;28;120309;-82
2022/07/18 03:42:25;;;;;;;10.88;7.05;;;;;;;20.62;60.49;101957.59;4893646;28;122319;-82
2022/07/18 03:44:51;;;;;;;11.57;7.10;;;;;;;20.60;60.52;101962.88;4925379;28;123033;-82
2022/07/18 03:47:16;;;;;;;12.27;6.63;;;;;;;20.59;60.71;101964.16;4918418;28;119946;-82
2022/07/18 03:49:42;;;;;;;9.53;7.10;;;;;;;20.58;60.87;101954.22;4929089;28;120295;-82
2022/07/18 03:52:07;;;;;;;10.52;6.63;;;;;;;20.61;60.91;101953.28;4928418;28;120364;-81
2022/07/18 03:54:33;;;;;;;10.27;6.72;;;;;;;20.62;60.92;101954.81;4931080;28;122130;-82
2022/07/18 03:56:58;;;;;;;9.60;6.50;;;;;;;20.71;60.70;101954.63;4907794;28;123457;-82
2022/07/18 03:59:24;;;;;;;9.37;6.40;;;;;;;20.73;60.64;101963.28;4921467;28;120155;-82
2022/07/18 04:01:50;;;;;;;9.67;6.50;;;;;;;20.70;60.78;101943.97;4928715;28;121821;-82
2022/07/18 04:04:15;;;;;;;11.00;6.68;;;;;;;20.76;60.54;101947.59;4927230;28;122843;-82
2022/07/18 04:06:41;;;;;;;11.40;6.80;;;;;;;20.78;60.06;101945.84;4924350;28;120151;-81
2022/07/18 04:09:07;;;;;;;13.50;6.57;;;;;;;20.79;60.22;101952.19;4933150;28;119892;-82
2022/07/18 04:11:32;;;;;;;9.88;6.38;;;;;;;20.76;60.49;101945.56;4928594;28;119907;-82
2022/07/18 04:13:58;;;;;;;10.17;5.80;;;;;;;20.80;60.22;101948.91;4927545;28;121986;-82
2022/07/18 04:16:24;;;;;;;9.43;6.03;;;;;;;20.68;60.21;101933.31;4929140;28;120691;-83
2022/07/18 04:18:50;;;;;;;9.13;5.50;;;;;;;20.82;60.45;101956.78;4928026;28;120054;-82
2022/07/18 04:21:16;;;;;;;8.87;5.43;;;;;;;20.85;60.13;101961.38;4915593;28;120110;-82
2022/07/18 04:23:42;;;;;;;8.00;5.43;;;;;;;20.90;60.13;101966.25;4927980;28;120485;-82
2022/07/18 04:26:08;;;;;;;8.60;5.43;;;;;;;20.94;60.09;101968.81;4914312;28;119996;-82
2022/07/18 04:28:33;;;;;;;8.65;5.28;;;;;;;20.90;60.08;101951.53;4933879;28;120023;-82
2022/07/18 04:30:59;;;;;;;8.52;5.10;;;;;;;20.99;59.98;101954.91;4931424;28;120079;-82
2022/07/18 04:33:48;;;;;;;9.40;5.50;;;;;;;20.97;59.99;101951.84;4889157;28;120063;-81
2022/07/18 04:36:14;;;;;;;8.02;5.38;;;;;;;21.01;60.16;101951.63;4915064;28;120553;-82
2022/07/18 04:38:39;;;;;;;9.45;5.07;;;;;;;21.01;59.92;101951.63;4916299;28;119982;-82
2022/07/18 04:41:05;;;;;;;8.80;5.20;;;;;;;21.05;60.05;101954.97;4913488;28;119821;-82
2022/07/18 04:43:31;;;;;;;10.10;5.30;;;;;;;21.06;59.80;101960.06;4932010;28;120100;-82
2022/07/18 04:45:57;;;;;;;7.78;5.28;;;;;;;21.03;60.07;101946.31;4910556;28;120082;-82
2022/07/18 04:48:23;;;;;;;6.50;5.18;;;;;;;21.15;59.50;101961.91;4931073;28;119947;-82
2022/07/18 04:50:49;;;;;;;8.25;4.82;;;;;;;21.05;60.00;101941.00;4933879;28;119951;-82
2022/07/18 04:53:14;;;;;;;8.18;5.18;;;;;;;21.18;59.66;101962.94;4944571;28;123039;-82
2022/07/18 04:55:40;;;;;;;9.45;5.32;;;;;;;21.12;60.11;101958.09;4931549;28;119991;-82
2022/07/18 04:58:06;;;;;;;9.15;5.03;;;;;;;21.19;59.77;101951.31;4898864;28;121316;-81
2022/07/18 05:00:31;;;;;;;7.50;5.20;;;;;;;21.16;59.33;101949.50;4893023;28;121647;-82
2022/07/18 05:02:58;;;;;;;8.27;5.07;;;;;;;21.17;59.74;101959.41;4911185;28;122733;-82
2022/07/18 05:05:26;;;;;;;6.25;4.90;;;;;;;21.18;59.94;101954.59;4914390;28;119931;-82
2022/07/18 05:07:53;;;;;;;10.30;5.60;;;;;;;21.18;59.73;101957.38;4913775;28;122132;-83
2022/07/18 05:10:21;;;;;;;8.07;5.45;;;;;;;21.27;59.79;101966.34;4917004;28;120903;-82
2022/07/18 05:12:49;;;;;;;8.68;5.30;;;;;;;21.30;60.08;101962.59;4931307;28;120381;-82
2022/07/18 05:15:17;;;;;;;9.97;5.53;;;;;;;21.36;60.14;101959.84;4922224;28;120073;-82
2022/07/18 05:17:43;;;;;;;9.30;6.13;;;;;;;21.35;59.76;101950.72;4916167;28;119819;-82
2022/07/18 05:20:14;;;;;;;8.48;5.43;;;;;;;21.42;59.74;101957.88;4912936;28;120574;-82
2022/07/18 05:22:41;;;;;;;8.35;5.28;;;;;;;21.42;59.66;101963.44;4914481;28;120702;-82
2022/07/18 05:25:08;;;;;;;8.13;5.20;;;;;;;21.38;59.95;101957.31;4911441;28;122054;-82
2022/07/18 05:27:34;;;;;;;10.93;5.68;;;;;;;21.41;59.94;101968.25;4932385;28;120711;-82
2022/07/18 05:30:01;;;;;;;8.60;5.60;;;;;;;21.45;60.14;101963.22;4913697;28;123962;-82
2022/07/18 05:32:27;;;;;;;10.00;5.60;;;;;;;21.51;60.00;101973.66;4912315;28;119765;-82
2022/07/18 05:34:56;;;;;;;8.23;5.70;;;;;;;21.53;60.07;101976.72;4901338;28;120786;-82
2022/07/18 05:37:21;;;;;;;9.15;5.20;;;;;;;21.56;59.89;101979.31;4918601;28;119968;-81
2022/07/18 05:39:47;;;;;;;10.00;5.87;;;;;;;21.54;59.77;101969.91;4925091;28;120038;-81
2022/07/18 05:42:13;;;;;;;8.20;5.80;;;;;;;21.65;60.90;101983.91;4926823;28;120152;-82
2022/07/18 05:44:39;;;;;;;8.43;5.45;;;;;;;21.67;60.48;101976.56;4925026;28;120637;-82
2022/07/18 05:47:04;;;;;;;8.80;5.80;;;;;;;21.69;60.57;101967.69;4922675;28;120228;-82
2022/07/18 05:49:30;;;;;;;9.00;5.50;;;;;;;21.83;61.18;101972.38;4929240;28;120843;-82
2022/07/18 05:51:56;;;;;;;9.73;5.50;;;;;;;21.92;60.49;101983.34;4928229;28;120367;-82
2022/07/18 05:54:21;;;;;;;8.03;5.67;;;;;;;21.98;60.73;101975.75;4930069;28;121847;-82
2022/07/18 05:56:49;;;;;;;8.68;5.80;;;;;;;22.09;60.14;101968.75;4940941;28;123017;-82
2022/07/18 05:59:35;;;;;;;11.10;5.38;;;;;;;22.21;60.84;101976.66;4926242;28;120093;-82
2022/07/18 06:02:00;;;;;;;8.40;5.32;;;;;;;22.23;59.50;101964.97;4918554;28;122893;-82
2022/07/18 06:04:29;;;;;;;8.53;5.37;;;;;;;22.28;60.31;101956.66;4925016;28;120265;-82
2022/07/18 06:07:04;;;;;;;9.07;5.67;;;;;;;22.42;60.46;101971.69;4925991;28;120509;-82
2022/07/18 06:09:30;;;;;;;8.17;5.27;;;;;;;22.39;59.51;101955.16;4925122;28;122143;-82
2022/07/18 06:12:00;;;;;;;8.70;5.13;;;;;;;22.49;59.43;101962.81;4937954;28;121958;-82
2022/07/18 06:14:30;;;;;;;9.18;5.68;;;;;;;22.47;59.87;101959.75;4925581;28;121950;-82
2022/07/18 06:16:56;;;;;;;9.50;5.37;;;;;;;22.50;60.40;101969.94;4919534;28;120327;-82
2022/07/18 06:19:22;;;;;;;10.17;5.47;;;;;;;22.47;60.53;101959.75;4915137;28;120407;-82
2022/07/18 06:21:48;;;;;;;9.83;5.70;;;;;;;22.45;60.65;101951.09;4915179;28;123452;-82
2022/07/18 06:24:14;;;;;;;8.27;5.57;;;;;;;22.49;59.55;101953.69;4909488;28;120818;-82
2022/07/18 06:26:39;;;;;;;10.23;5.73;;;;;;;22.58;59.34;101965.38;4924843;28;120261;-82
2022/07/18 06:29:05;;;;;;;8.67;5.50;;;;;;;22.60;59.71;101971.25;4910151;28;123228;-83
2022/07/18 06:31:30;;;;;;;9.07;5.87;;;;;;;22.61;59.57;101961.56;4916862;28;120841;-82
2022/07/18 06:33:56;;;;;;;9.02;5.85;;;;;;;22.68;59.35;101960.31;4903957;28;122046;-82
2022/07/18 06:36:23;;;;;;;9.40;5.20;;;;;;;22.69;59.39;101947.84;4920576;28;121303;-82
2022/07/18 06:38:50;;;;;;;8.95;5.15;;;;;;;22.78;58.82;101955.28;4944086;28;120663;-83
2022/07/18 06:41:19;;;;;;;8.43;4.83;;;;;;;22.83;58.46;101951.75;4924520;28;123716;-82
2022/07/18 06:43:45;;;;;;;7.77;4.60;;;;;;;22.88;58.66;101948.19;4919994;28;120870;-82
2022/07/18 06:46:14;;;;;;;9.53;5.27;;;;;;;22.91;58.34;101927.59;4920582;28;120302;-82
2022/07/18 06:48:39;;;;;;;7.93;4.83;;;;;;;23.04;58.59;101938.28;4918070;28;122650;-82
2022/07/18 06:51:06;;;;;;;8.93;5.20;;;;;;;23.10;58.33;101930.66;4919420;28;120699;-82
2022/07/18 06:53:32;;;;;;;8.07;5.10;;;;;;;23.14;57.97;101923.53;4910588;28;122941;-83
2022/07/18 06:55:58;;;;;;;6.72;4.50;;;;;;;23.20;57.69;101915.91;4952894;28;121502;-83
2022/07/18 06:58:24;;;;;;;8.75;4.97;;;;;;;23.32;56.87;101916.66;4926072;28;120389;-82
2022/07/18 07:01:06;;;;;;;7.33;4.67;;;;;;;23.37;56.78;101918.69;4919749;28;121323;-82
2022/07/18 07:03:32;;;;;;;8.43;4.70;;;;;;;23.35;56.89;101910.03;4903041;28;121466;-83
2022/07/18 07:06:00;;;;;;;10.20;4.88;;;;;;;23.40;56.58;101912.06;4892883;28;122862;-82
2022/07/18 07:08:26;;;;;;;7.90;4.70;;;;;;;23.47;56.39;101908.00;4941092;28;123180;-82
2022/07/18 07:10:52;;;;;;;7.87;4.53;;;;;;;23.43;55.96;101904.72;4930570;28;120301;-82
2022/07/18 07:13:17;;;;;;;8.27;4.53;;;;;;;23.49;55.99;101900.63;4928709;28;120349;-82
2022/07/18 07:15:43;;;;;;;8.68;4.32;;;;;;;23.51;56.29;101898.06;4926902;28;120557;-82
2022/07/18 07:18:32;;;;;;;8.20;5.05;;;;;;;23.50;56.33;101902.13;4916668;28;121035;-82
2022/07/18 07:20:58;;;;;;;9.02;4.78;;;;;;;23.52;55.75;101893.97;4934275;28;123138;-83
2022/07/18 07:23:24;;;;;;;7.35;4.63;;;;;;;23.52;55.98;101890.41;4932357;28;120719;-81
2022/07/18 07:25:49;;;;;;;9.80;4.93;;;;;;;23.44;56.00;101886.63;4919907;28;121018;-82
2022/07/18 07:28:18;;;;;;;8.10;5.13;;;;;;;23.46;56.06;101903.69;4924561;28;122802;-82
2022/07/18 07:30:44;;;;;;;8.73;5.20;;;;;;;23.42;56.29;101898.34;4924661;28;120446;-82
2022/07/18 07:33:09;;;;;;;8.07;5.13;;;;;;;23.44;56.24;101903.44;4922685;28;122643;-82
2022/07/18 07:36:01;;;;;;;9.82;4.80;;;;;;;23.48;55.57;101903.94;4920261;28;121545;-82
2022/07/18 07:38:28;;;;;;;8.98;4.75;;;;;;;23.52;55.83;101910.78;4909324;28;120711;-82
2022/07/18 07:40:55;;;;;;;6.70;4.55;;;;;;;23.57;55.59;101915.63;4926990;28;121057;-82
2022/07/18 07:43:21;;;;;;;7.18;4.72;;;;;;;23.59;55.54;101906.72;4909391;28;122010;-82
2022/07/18 07:45:50;;;;;;;6.57;4.43;;;;;;;23.71;54.86;101902.63;4909891;28;121143;-82
2022/07/18 07:48:16;;;;;;;9.52;5.15;;;;;;;23.78;55.43;101910.50;4918808;28;121307;-82
2022/07/18 07:50:42;;;;;;;9.00;4.97;;;;;;;23.86;54.91;101905.13;4923639;28;121025;-82
2022/07/18 07:53:08;;;;;;;9.10;5.10;;;;;;;23.94;54.92;101900.53;4927604;28;120904;-82
2022/07/18 07:55:34;;;;;;;7.97;4.60;;;;;;;24.06;54.18;101910.41;4934254;28;124557;-82
2022/07/18 07:58:00;;;;;;;8.43;4.97;;;;;;;24.16;54.38;101894.06;4926663;28;120967;-82
2022/07/18 08:00:27;;;;;;;9.83;4.87;;;;;;;24.17;54.26;101878.78;4927852;28;121737;-82
2022/07/18 08:02:59;;;;;;;7.13;4.50;;;;;;;24.29;53.55;101880.25;4924144;28;124354;-83
2022/07/18 08:05:25;;;;;;;9.57;4.57;;;;;;;24.45;53.01;101887.06;4909544;28;121728;-83
2022/07/18 08:07:51;;;;;;;11.63;4.72;;;;;;;24.65;53.19;101908.34;4926987;28;122109;-82
2022/07/18 08:10:16;;;;;;;8.88;4.32;;;;;;;24.79;53.13;101910.78;4890651;28;122176;-83
2022/07/18 08:12:42;;;;;;;6.70;4.65;;;;;;;24.99;52.17;101917.31;4908313;28;122557;-82
2022/07/18 08:15:09;;;;;;;7.40;4.22;;;;;;;25.12;51.97;101914.66;4925185;28;124862;-83
2022/07/18 08:17:35;;;;;;;6.70;4.32;;;;;;;25.27;51.51;101919.88;4921401;28;123216;-83
2022/07/18 08:20:00;;;;;;;8.43;4.00;;;;;;;25.35;51.02;101920.84;4932582;28;124487;-83
2022/07/18 08:22:26;;;;;;;7.00;4.43;;;;;;;25.45;51.15;101913.59;4899445;28;125458;-83
2022/07/18 08:24:52;;;;;;;7.30;4.43;;;;;;;25.55;50.38;101908.38;4890936;28;122426;-82
2022/07/18 08:27:18;;;;;;;8.32;4.22;;;;;;;25.56;50.17;101899.44;4927657;28;121739;-82
2022/07/18 08:29:43;;;;;;;8.73;4.67;;;;;;;25.57;50.08;101883.34;4906926;28;122402;-83
2022/07/18 08:32:10;;;;;;;9.55;4.53;;;;;;;25.76;49.95;101894.63;4918336;28;121936;-82
2022/07/18 08:34:35;;;;;;;7.97;4.40;;;;;;;25.82;49.56;101898.16;4911581;28;123645;-83
2022/07/18 08:37:01;;;;;;;7.10;4.00;;;;;;;25.82;49.95;101901.75;4922621;28;121986;-83
2022/07/18 08:39:26;;;;;;;8.40;4.00;;;;;;;25.95;50.29;101887.75;4934968;28;121857;-83
2022/07/18 08:41:56;;;;;;;7.53;4.20;;;;;;;26.04;49.94;101871.84;4909377;28;122668;-82
2022/07/18 08:44:21;;;;;;;7.28;4.28;;;;;;;26.15;49.51;101878.06;4904718;28;122407;-83
2022/07/18 08:46:51;;;;;;;8.40;4.18;;;;;;;26.26;48.75;101883.53;4905599;28;124330;-83
2022/07/18 08:49:18;;;;;;;6.97;3.90;;;;;;;26.33;48.83;101881.41;4911692;28;125312;-83
2022/07/18 08:51:44;;;;;;;8.05;4.07;;;;;;;26.40;48.59;101880.81;4923369;28;122544;-83
2022/07/18 08:54:28;;;;;;;8.10;4.00;;;;;;;26.52;48.93;101871.69;4921935;28;123015;-83
2022/07/18 08:56:54;;;;;;;6.35;4.22;;;;;;;26.66;47.58;101875.31;4934976;28;122887;-82
2022/07/18 08:59:19;;;;;;;7.55;4.38;;;;;;;26.77;48.65;101868.75;4903809;28;125013;-83
2022/07/18 09:01:45;;;;;;;8.30;4.45;;;;;;;26.97;48.71;101875.81;4932622;28;125876;-83
2022/07/18 09:04:18;;;;;;;6.90;4.50;;;;;;;27.01;46.44;101865.81;4905079;28;123871;-83
2022/07/18 09:06:48;;;;;;;8.53;4.93;;;;;;;27.09;45.45;101874.38;4937432;28;123489;-83
2022/07/18 09:09:15;;;;;;;8.02;4.72;;;;;;;27.09;44.78;101880.78;4933998;28;123525;-83
2022/07/18 09:12:00;;;;;;;7.63;4.57;;;;;;;27.16;44.59;101882.19;4930077;28;122674;-82
2022/07/18 09:14:39;;;;;;;8.88;4.65;;;;;;;27.20;44.70;101888.25;4942755;28;123873;-83
2022/07/18 09:17:11;;;;;;;9.03;4.40;;;;;;;27.23;44.20;101878.75;4942603;28;122423;-83
2022/07/18 09:19:40;;;;;;;6.50;4.15;;;;;;;27.28;43.85;101885.56;4940489;28;122509;-84
2022/07/18 09:22:15;;;;;;;8.75;4.78;;;;;;;27.34;43.45;101892.63;4922417;28;125139;-83
2022/07/18 09:25:00;;;;;;;8.38;4.60;;;;;;;27.29;43.75;101882.22;4923965;28;122763;-83
2022/07/18 09:27:48;;;;;;;7.47;4.40;;;;;;;27.25;43.60;101881.78;4926323;28;123525;-83
2022/07/18 09:30:15;;;;;;;7.85;4.53;;;;;;;27.24;43.81;101887.97;4938846;28;124602;-83
2022/07/18 09:32:42;;;;;;;6.82;4.25;;;;;;;27.23;43.50;101887.19;4941174;28;122423;-83
2022/07/18 09:35:27;;;;;;;6.78;4.28;;;;;;;27.12;43.94;101881.75;4940797;28;122457;-83
2022/07/18 09:37:56;;;;;;;6.43;4.25;;;;;;;27.12;44.27;101890.94;4937584;28;122398;-84
2022/07/18 09:40:31;;;;;;;8.63;3.97;;;;;;;27.07;44.75;101876.97;4906114;28;124986;-83
2022/07/18 09:43:00;;;;;;;6.67;3.93;;;;;;;27.12;44.44;101888.13;4923689;28;123703;-83
2022/07/18 09:45:29;;;;;;;7.35;4.28;;;;;;;27.23;44.85;101887.19;4920718;28;122734;-83
2022/07/18 09:48:06;;;;;;;6.47;3.78;;;;;;;27.32;43.67;101878.31;4943746;28;122021;-83
2022/07/18 09:50:40;;;;;;;6.75;3.60;;;;;;;27.37;42.34;101885.91;4941796;28;123906;-84
2022/07/18 09:53:19;;;;;;;6.55;3.70;;;;;;;27.49;42.21;101884.41;4893691;28;123038;-83
2022/07/18 09:55:49;;;;;;;7.78;3.50;;;;;;;27.50;42.22;101866.19;4941094;28;124146;-82
2022/07/18 09:58:17;;;;;;;5.13;3.47;;;;;;;27.64;42.04;101877.47;4947473;28;122818;-83
2022/07/18 10:00:43;;;;;;;6.68;3.50;;;;;;;27.70;41.93;101878.91;4905600;28;124682;-83
2022/07/18 10:03:09;;;;;;;5.47;3.60;;;;;;;27.75;41.39;101874.44;4923362;28;125056;-83
2022/07/18 10:05:38;;;;;;;6.10;3.30;;;;;;;27.87;41.72;101872.16;4944262;28;122417;-83
2022/07/18 10:08:08;;;;;;;6.17;3.53;;;;;;;28.00;41.24;101870.06;4923522;28;124478;-83
2022/07/18 10:10:34;;;;;;;5.60;3.20;;;;;;;28.16;41.23;101876.66;4935832;28;124778;-83
2022/07/18 10:13:01;;;;;;;6.75;3.20;;;;;;;28.21;40.53;101875.03;4910183;28;122259;-84
2022/07/18 10:15:39;;;;;;;5.78;3.20;;;;;;;28.27;40.86;101873.63;4924224;28;122208;-84
2022/07/18 10:18:07;;;;;;;5.97;2.90;;;;;;;28.38;41.50;101876.16;4909200;28;126562;-84
2022/07/18 10:20:36;;;;;;;6.25;3.20;;;;;;;28.50;40.53;101867.47;4901904;28;124371;-83
2022/07/18 10:23:15;;;;;;;4.40;2.90;;;;;;;28.50;40.25;101865.41;4907875;28;126294;-83
2022/07/18 10:25:41;;;;;;;6.18;3.53;;;;;;;28.61;39.39;101873.59;4923204;28;122561;-83
2022/07/18 10:28:10;;;;;;;6.10;3.20;;;;;;;28.59;38.55;101872.63;4922063;28;122896;-83
2022/07/18 10:30:38;;;;;;;5.53;3.30;;;;;;;28.47;39.20;101858.03;4925728;28;122482;-84
2022/07/18 10:33:40;;;;;;;7.15;3.20;;;;;;;28.48;40.18;101859.53;4917886;28;122336;-83
2022/07/18 10:36:20;;;;;;;7.73;3.33;;;;;;;28.36;39.85;101852.63;4919754;28;122190;-84
2022/07/18 10:39:20;;;;;;;7.50;3.30;;;;;;;28.30;40.56;101846.38;4909223;28;123963;-84
2022/07/18 10:41:45;;;;;;;6.03;3.60;;;;;;;28.20;39.95;101850.94;4911711;28;122452;-83
2022/07/18 10:44:23;;;;;;;6.65;3.65;;;;;;;28.03;39.68;101849.25;4888454;28;125957;-83
2022/07/18 10:47:01;;;;;;;7.00;3.40;;;;;;;27.87;41.01;101853.16;4907367;28;122673;-83
2022/07/18 10:49:48;;;;;;;8.20;3.70;;;;;;;27.70;40.98;101849.97;4907427;28;125416;-84
2022/07/18 10:52:28;;;;;;;7.97;4.10;;;;;;;27.54;40.79;101863.06;4910730;28;124334;-83
2022/07/18 10:55:06;;;;;;;7.55;4.00;;;;;;;27.43;41.22;101864.00;4923962;28;122819;-83
2022/07/18 10:57:34;;;;;;;5.78;3.80;;;;;;;27.31;40.49;101870.41;4908135;28;123062;-84
2022/07/18 11:00:00;;;;;;;6.43;3.55;;;;;;;27.30;40.57;101880.16;4906764;28;122488;-83
2022/07/18 11:02:43;;;;;;;7.88;3.95;;;;;;;27.19;40.66;101861.38;4915277;28;123088;-83
2022/07/18 11:05:24;;;;;;;6.27;3.73;;;;;;;27.18;40.96;101866.25;4895131;28;122774;-83
2022/07/18 11:08:02;;;;;;;7.07;3.50;;;;;;;27.13;41.03;101869.94;4926130;28;122354;-84
2022/07/18 11:11:01;;;;;;;7.13;3.57;;;;;;;27.06;41.42;101867.00;4916293;28;122314;-83
2022/07/18 11:13:32;;;;;;;6.27;3.57;;;;;;;26.99;42.37;101864.81;4890533;28;124214;-84
2022/07/18 11:16:05;;;;;;;7.18;3.65;;;;;;;26.99;42.07;101867.63;4921101;28;122472;-84
2022/07/18 11:18:33;;;;;;;6.43;3.40;;;;;;;27.10;41.68;101867.44;4941294;28;122321;-84
2022/07/18 11:20:58;;;;;;;6.17;3.37;;;;;;;27.10;41.63;101868.19;4920147;28;126199;-84
2022/07/18 11:23:26;;;;;;;6.03;3.20;;;;;;;27.20;41.21;101865.72;4921035;28;122201;-82
2022/07/18 11:25:56;;;;;;;4.72;3.20;;;;;;;27.17;41.10;101858.34;4917818;28;122737;-83